sensor_id;sensor_type;location;lat;lon;timestamp;P1;durP1;ratioP1;P2;durP2;ratioP2
73954;SDS011;62306;52.516;13.290;2022-10-31T00:00:07;34.60;;;19.73;;
73954;SDS011;62306;52.516;13.290;2022-10-31T00:02:34;32.63;;;19.63;;
73954;SDS011;62306;52.516;13.290;2022-10-31T00:05:01;35.47;;;19.73;;
73954;SDS011;62306;52.516;13.290;2022-10-31T00:07:28;37.63;;;21.48;;
73954;SDS011;62306;52.516;13.290;2022-10-31T00:09:55;39.80;;;20.63;;
73954;SDS011;62306;52.516;13.290;2022-10-31T00:12:23;44.05;;;22.05;;
73954;SDS011;62306;52.516;13.290;2022-10-31T00:14:50;46.90;;;29.00;;
73954;SDS011;62306;52.516;13.290;2022-10-31T00:17:17;60.00;;;39.95;;
73954;SDS011;62306;52.516;13.290;2022-10-31T00:19:44;52.08;;;33.50;;
73954;SDS011;62306;52.516;13.290;2022-10-31T00:22:11;36.03;;;20.92;;
73954;SDS011;62306;52.516;13.290;2022-10-31T00:24:38;36.15;;;20.65;;
73954;SDS011;62306;52.516;13.290;2022-10-31T00:27:05;41.47;;;20.85;;
73954;SDS011;62306;52.516;13.290;2022-10-31T00:29:33;36.95;;;21.25;;
73954;SDS011;62306;52.516;13.290;2022-10-31T00:32:00;39.70;;;20.73;;
73954;SDS011;62306;52.516;13.290;2022-10-31T00:34:27;37.63;;;20.35;;
73954;SDS011;62306;52.516;13.290;2022-10-31T00:36:53;37.95;;;20.00;;
73954;SDS011;62306;52.516;13.290;2022-10-31T00:39:20;34.85;;;18.90;;
73954;SDS011;62306;52.516;13.290;2022-10-31T00:41:47;39.53;;;19.48;;
73954;SDS011;62306;52.516;13.290;2022-10-31T00:44:14;38.90;;;20.45;;
73954;SDS011;62306;52.516;13.290;2022-10-31T00:46:42;34.63;;;19.67;;
73954;SDS011;62306;52.516;13.290;2022-10-31T00:49:09;43.40;;;20.35;;
73954;SDS011;62306;52.516;13.290;2022-10-31T00:51:37;41.35;;;19.27;;
73954;SDS011;62306;52.516;13.290;2022-10-31T00:54:04;33.55;;;19.27;;
73954;SDS011;62306;52.516;13.290;2022-10-31T00:56:31;35.90;;;19.52;;
73954;SDS011;62306;52.516;13.290;2022-10-31T00:58:58;32.13;;;19.65;;
73954;SDS011;62306;52.516;13.290;2022-10-31T01:01:25;37.42;;;19.30;;
73954;SDS011;62306;52.516;13.290;2022-10-31T01:03:53;30.67;;;18.38;;
73954;SDS011;62306;52.516;13.290;2022-10-31T01:06:20;34.78;;;19.55;;
73954;SDS011;62306;52.516;13.290;2022-10-31T01:08:47;41.58;;;19.85;;
73954;SDS011;62306;52.516;13.290;2022-10-31T01:11:14;36.47;;;19.05;;
73954;SDS011;62306;52.516;13.290;2022-10-31T01:13:42;36.33;;;19.35;;
73954;SDS011;62306;52.516;13.290;2022-10-31T01:16:10;35.97;;;18.70;;
73954;SDS011;62306;52.516;13.290;2022-10-31T01:18:39;32.40;;;18.48;;
73954;SDS011;62306;52.516;13.290;2022-10-31T01:21:09;32.60;;;18.38;;
73954;SDS011;62306;52.516;13.290;2022-10-31T01:23:37;44.80;;;18.95;;
73954;SDS011;62306;52.516;13.290;2022-10-31T01:26:05;32.10;;;18.35;;
73954;SDS011;62306;52.516;13.290;2022-10-31T01:28:34;33.95;;;17.73;;
73954;SDS011;62306;52.516;13.290;2022-10-31T01:31:03;37.75;;;18.70;;
73954;SDS011;62306;52.516;13.290;2022-10-31T01:33:32;36.75;;;18.77;;
73954;SDS011;62306;52.516;13.290;2022-10-31T01:35:59;38.83;;;19.10;;
73954;SDS011;62306;52.516;13.290;2022-10-31T01:38:28;32.60;;;17.73;;
73954;SDS011;62306;52.516;13.290;2022-10-31T01:40:56;29.20;;;17.88;;
73954;SDS011;62306;52.516;13.290;2022-10-31T01:43:23;40.10;;;21.98;;
73954;SDS011;62306;52.516;13.290;2022-10-31T01:46:07;40.38;;;19.15;;
73954;SDS011;62306;52.516;13.290;2022-10-31T01:48:34;31.75;;;18.48;;
73954;SDS011;62306;52.516;13.290;2022-10-31T01:51:01;33.53;;;17.95;;
73954;SDS011;62306;52.516;13.290;2022-10-31T01:53:31;32.85;;;17.83;;
73954;SDS011;62306;52.516;13.290;2022-10-31T01:55:59;37.83;;;18.25;;
73954;SDS011;62306;52.516;13.290;2022-10-31T01:58:27;31.75;;;17.27;;
73954;SDS011;62306;52.516;13.290;2022-10-31T02:00:57;31.60;;;17.23;;
73954;SDS011;62306;52.516;13.290;2022-10-31T02:03:26;24.50;;;15.85;;
73954;SDS011;62306;52.516;13.290;2022-10-31T02:05:54;30.50;;;16.80;;
73954;SDS011;62306;52.516;13.290;2022-10-31T02:08:23;34.70;;;16.83;;
73954;SDS011;62306;52.516;13.290;2022-10-31T02:10:54;31.75;;;16.13;;
73954;SDS011;62306;52.516;13.290;2022-10-31T02:13:23;39.50;;;17.50;;
73954;SDS011;62306;52.516;13.290;2022-10-31T02:15:53;38.83;;;17.40;;
73954;SDS011;62306;52.516;13.290;2022-10-31T02:18:22;33.83;;;16.95;;
73954;SDS011;62306;52.516;13.290;2022-10-31T02:20:54;34.33;;;17.02;;
73954;SDS011;62306;52.516;13.290;2022-10-31T02:23:42;27.98;;;16.90;;
73954;SDS011;62306;52.516;13.290;2022-10-31T02:26:59;27.27;;;16.02;;
73954;SDS011;62306;52.516;13.290;2022-10-31T02:29:48;33.55;;;17.58;;
73954;SDS011;62306;52.516;13.290;2022-10-31T02:32:31;32.33;;;16.83;;
73954;SDS011;62306;52.516;13.290;2022-10-31T02:35:13;29.17;;;16.70;;
73954;SDS011;62306;52.516;13.290;2022-10-31T02:37:49;30.58;;;16.40;;
73954;SDS011;62306;52.516;13.290;2022-10-31T02:40:20;52.95;;;16.80;;
73954;SDS011;62306;52.516;13.290;2022-10-31T02:42:54;31.23;;;16.05;;
73954;SDS011;62306;52.516;13.290;2022-10-31T02:45:29;29.35;;;15.30;;
73954;SDS011;62306;52.516;13.290;2022-10-31T02:48:01;28.60;;;15.20;;
73954;SDS011;62306;52.516;13.290;2022-10-31T02:50:34;34.28;;;15.40;;
73954;SDS011;62306;52.516;13.290;2022-10-31T02:53:06;27.92;;;16.08;;
73954;SDS011;62306;52.516;13.290;2022-10-31T02:55:47;29.88;;;16.13;;
73954;SDS011;62306;52.516;13.290;2022-10-31T02:58:21;29.55;;;15.70;;
73954;SDS011;62306;52.516;13.290;2022-10-31T03:00:54;28.83;;;15.43;;
73954;SDS011;62306;52.516;13.290;2022-10-31T03:03:44;31.58;;;16.15;;
73954;SDS011;62306;52.516;13.290;2022-10-31T03:06:20;35.05;;;15.35;;
73954;SDS011;62306;52.516;13.290;2022-10-31T03:08:54;32.70;;;15.90;;
73954;SDS011;62306;52.516;13.290;2022-10-31T03:11:28;29.65;;;15.50;;
73954;SDS011;62306;52.516;13.290;2022-10-31T03:14:00;27.00;;;14.85;;
73954;SDS011;62306;52.516;13.290;2022-10-31T03:16:36;30.60;;;16.33;;
73954;SDS011;62306;52.516;13.290;2022-10-31T03:19:10;33.58;;;15.15;;
73954;SDS011;62306;52.516;13.290;2022-10-31T03:21:42;28.35;;;15.45;;
73954;SDS011;62306;52.516;13.290;2022-10-31T03:24:12;31.02;;;15.23;;
73954;SDS011;62306;52.516;13.290;2022-10-31T03:26:41;32.78;;;15.45;;
73954;SDS011;62306;52.516;13.290;2022-10-31T03:29:12;35.45;;;14.63;;
73954;SDS011;62306;52.516;13.290;2022-10-31T03:31:43;30.73;;;14.32;;
73954;SDS011;62306;52.516;13.290;2022-10-31T03:34:15;27.75;;;16.33;;
73954;SDS011;62306;52.516;13.290;2022-10-31T03:36:45;31.45;;;14.00;;
73954;SDS011;62306;52.516;13.290;2022-10-31T03:39:15;25.98;;;14.75;;
73954;SDS011;62306;52.516;13.290;2022-10-31T03:41:46;29.48;;;14.45;;
73954;SDS011;62306;52.516;13.290;2022-10-31T03:44:18;31.08;;;15.13;;
73954;SDS011;62306;52.516;13.290;2022-10-31T03:46:47;31.75;;;15.85;;
73954;SDS011;62306;52.516;13.290;2022-10-31T03:49:16;29.45;;;14.48;;
73954;SDS011;62306;52.516;13.290;2022-10-31T03:51:44;28.95;;;15.25;;
73954;SDS011;62306;52.516;13.290;2022-10-31T03:54:17;30.33;;;14.38;;
73954;SDS011;62306;52.516;13.290;2022-10-31T03:56:51;29.70;;;13.90;;
73954;SDS011;62306;52.516;13.290;2022-10-31T03:59:22;25.77;;;14.57;;
73954;SDS011;62306;52.516;13.290;2022-10-31T04:01:53;28.77;;;14.55;;
73954;SDS011;62306;52.516;13.290;2022-10-31T04:04:25;29.08;;;16.00;;
73954;SDS011;62306;52.516;13.290;2022-10-31T04:06:53;27.05;;;16.13;;
73954;SDS011;62306;52.516;13.290;2022-10-31T04:09:22;31.15;;;15.50;;
73954;SDS011;62306;52.516;13.290;2022-10-31T04:11:52;28.38;;;14.80;;
73954;SDS011;62306;52.516;13.290;2022-10-31T04:14:21;28.33;;;15.13;;
73954;SDS011;62306;52.516;13.290;2022-10-31T04:16:51;29.13;;;15.05;;
73954;SDS011;62306;52.516;13.290;2022-10-31T04:19:18;29.20;;;14.77;;
73954;SDS011;62306;52.516;13.290;2022-10-31T04:21:46;29.50;;;14.68;;
73954;SDS011;62306;52.516;13.290;2022-10-31T04:24:13;34.13;;;14.32;;
73954;SDS011;62306;52.516;13.290;2022-10-31T04:26:40;31.27;;;16.13;;
73954;SDS011;62306;52.516;13.290;2022-10-31T04:29:07;28.27;;;14.35;;
73954;SDS011;62306;52.516;13.290;2022-10-31T04:31:34;33.33;;;15.32;;
73954;SDS011;62306;52.516;13.290;2022-10-31T04:34:00;36.20;;;14.82;;
73954;SDS011;62306;52.516;13.290;2022-10-31T04:36:27;33.58;;;15.13;;
73954;SDS011;62306;52.516;13.290;2022-10-31T04:38:56;24.02;;;14.18;;
73954;SDS011;62306;52.516;13.290;2022-10-31T04:41:23;32.33;;;14.55;;
73954;SDS011;62306;52.516;13.290;2022-10-31T04:43:50;26.88;;;13.10;;
73954;SDS011;62306;52.516;13.290;2022-10-31T04:46:17;26.80;;;13.68;;
73954;SDS011;62306;52.516;13.290;2022-10-31T04:48:44;31.98;;;14.13;;
73954;SDS011;62306;52.516;13.290;2022-10-31T04:51:11;26.10;;;13.88;;
73954;SDS011;62306;52.516;13.290;2022-10-31T04:53:38;56.50;;;32.85;;
73954;SDS011;62306;52.516;13.290;2022-10-31T04:56:06;50.13;;;31.90;;
73954;SDS011;62306;52.516;13.290;2022-10-31T04:58:33;28.90;;;14.75;;
73954;SDS011;62306;52.516;13.290;2022-10-31T05:01:00;26.20;;;14.30;;
73954;SDS011;62306;52.516;13.290;2022-10-31T05:03:27;29.15;;;14.10;;
73954;SDS011;62306;52.516;13.290;2022-10-31T05:05:54;25.85;;;14.05;;
73954;SDS011;62306;52.516;13.290;2022-10-31T05:08:21;35.55;;;16.55;;
73954;SDS011;62306;52.516;13.290;2022-10-31T05:10:48;27.58;;;15.40;;
73954;SDS011;62306;52.516;13.290;2022-10-31T05:13:16;29.55;;;15.05;;
73954;SDS011;62306;52.516;13.290;2022-10-31T05:15:43;29.30;;;14.85;;
73954;SDS011;62306;52.516;13.290;2022-10-31T05:18:10;27.02;;;14.32;;
73954;SDS011;62306;52.516;13.290;2022-10-31T05:20:37;29.50;;;14.57;;
73954;SDS011;62306;52.516;13.290;2022-10-31T05:23:04;28.80;;;14.63;;
73954;SDS011;62306;52.516;13.290;2022-10-31T05:25:31;31.25;;;14.63;;
73954;SDS011;62306;52.516;13.290;2022-10-31T05:27:58;24.85;;;14.23;;
73954;SDS011;62306;52.516;13.290;2022-10-31T05:30:27;30.60;;;14.43;;
73954;SDS011;62306;52.516;13.290;2022-10-31T05:32:55;24.95;;;14.65;;
73954;SDS011;62306;52.516;13.290;2022-10-31T05:35:23;30.92;;;14.60;;
73954;SDS011;62306;52.516;13.290;2022-10-31T05:37:51;32.33;;;15.20;;
73954;SDS011;62306;52.516;13.290;2022-10-31T05:40:18;31.35;;;15.65;;
73954;SDS011;62306;52.516;13.290;2022-10-31T05:42:46;25.33;;;16.17;;
73954;SDS011;62306;52.516;13.290;2022-10-31T05:45:14;37.65;;;17.40;;
73954;SDS011;62306;52.516;13.290;2022-10-31T05:47:49;33.72;;;15.68;;
73954;SDS011;62306;52.516;13.290;2022-10-31T05:50:16;32.08;;;15.68;;
73954;SDS011;62306;52.516;13.290;2022-10-31T05:52:43;32.53;;;15.30;;
73954;SDS011;62306;52.516;13.290;2022-10-31T05:55:10;33.95;;;15.88;;
73954;SDS011;62306;52.516;13.290;2022-10-31T05:57:37;27.33;;;14.68;;
73954;SDS011;62306;52.516;13.290;2022-10-31T06:00:04;32.25;;;15.35;;
73954;SDS011;62306;52.516;13.290;2022-10-31T06:02:32;38.40;;;16.55;;
73954;SDS011;62306;52.516;13.290;2022-10-31T06:05:01;33.85;;;15.98;;
73954;SDS011;62306;52.516;13.290;2022-10-31T06:07:31;30.73;;;15.75;;
73954;SDS011;62306;52.516;13.290;2022-10-31T06:09:59;30.83;;;14.70;;
73954;SDS011;62306;52.516;13.290;2022-10-31T06:12:26;35.45;;;18.13;;
73954;SDS011;62306;52.516;13.290;2022-10-31T06:14:53;39.85;;;17.55;;
73954;SDS011;62306;52.516;13.290;2022-10-31T06:17:20;35.92;;;16.52;;
73954;SDS011;62306;52.516;13.290;2022-10-31T06:19:47;26.38;;;14.93;;
73954;SDS011;62306;52.516;13.290;2022-10-31T06:22:15;35.67;;;15.65;;
73954;SDS011;62306;52.516;13.290;2022-10-31T06:24:42;30.42;;;16.23;;
73954;SDS011;62306;52.516;13.290;2022-10-31T06:27:09;30.65;;;15.55;;
73954;SDS011;62306;52.516;13.290;2022-10-31T06:29:36;38.60;;;16.33;;
73954;SDS011;62306;52.516;13.290;2022-10-31T06:32:03;37.25;;;16.45;;
73954;SDS011;62306;52.516;13.290;2022-10-31T06:34:30;33.50;;;16.85;;
73954;SDS011;62306;52.516;13.290;2022-10-31T06:36:58;57.65;;;34.72;;
73954;SDS011;62306;52.516;13.290;2022-10-31T06:39:27;36.40;;;23.02;;
73954;SDS011;62306;52.516;13.290;2022-10-31T06:41:53;40.03;;;21.10;;
73954;SDS011;62306;52.516;13.290;2022-10-31T06:44:20;35.97;;;21.58;;
73954;SDS011;62306;52.516;13.290;2022-10-31T06:46:47;32.35;;;20.05;;
73954;SDS011;62306;52.516;13.290;2022-10-31T06:49:14;38.35;;;17.88;;
73954;SDS011;62306;52.516;13.290;2022-10-31T06:51:41;33.55;;;18.00;;
73954;SDS011;62306;52.516;13.290;2022-10-31T06:54:08;34.10;;;16.85;;
73954;SDS011;62306;52.516;13.290;2022-10-31T06:56:37;34.45;;;15.57;;
73954;SDS011;62306;52.516;13.290;2022-10-31T06:59:04;30.05;;;16.48;;
73954;SDS011;62306;52.516;13.290;2022-10-31T07:01:31;31.00;;;16.58;;
73954;SDS011;62306;52.516;13.290;2022-10-31T07:03:58;35.22;;;14.90;;
73954;SDS011;62306;52.516;13.290;2022-10-31T07:06:25;26.85;;;14.77;;
73954;SDS011;62306;52.516;13.290;2022-10-31T07:08:52;32.15;;;14.93;;
73954;SDS011;62306;52.516;13.290;2022-10-31T07:11:19;39.92;;;17.40;;
73954;SDS011;62306;52.516;13.290;2022-10-31T07:13:47;28.25;;;15.48;;
73954;SDS011;62306;52.516;13.290;2022-10-31T07:16:14;32.72;;;15.02;;
73954;SDS011;62306;52.516;13.290;2022-10-31T07:18:41;35.08;;;15.80;;
73954;SDS011;62306;52.516;13.290;2022-10-31T07:21:07;31.10;;;15.15;;
73954;SDS011;62306;52.516;13.290;2022-10-31T07:23:34;35.75;;;15.75;;
73954;SDS011;62306;52.516;13.290;2022-10-31T07:26:01;29.95;;;15.68;;
73954;SDS011;62306;52.516;13.290;2022-10-31T07:28:29;28.55;;;15.07;;
73954;SDS011;62306;52.516;13.290;2022-10-31T07:30:57;35.55;;;15.38;;
73954;SDS011;62306;52.516;13.290;2022-10-31T07:33:24;28.67;;;15.10;;
73954;SDS011;62306;52.516;13.290;2022-10-31T07:35:52;30.83;;;15.98;;
73954;SDS011;62306;52.516;13.290;2022-10-31T07:38:19;30.00;;;15.88;;
73954;SDS011;62306;52.516;13.290;2022-10-31T07:40:49;38.03;;;16.77;;
73954;SDS011;62306;52.516;13.290;2022-10-31T07:43:17;32.55;;;16.88;;
73954;SDS011;62306;52.516;13.290;2022-10-31T07:45:49;30.40;;;16.35;;
73954;SDS011;62306;52.516;13.290;2022-10-31T07:48:18;37.38;;;16.80;;
73954;SDS011;62306;52.516;13.290;2022-10-31T07:50:46;33.17;;;16.65;;
73954;SDS011;62306;52.516;13.290;2022-10-31T07:53:13;32.60;;;17.73;;
73954;SDS011;62306;52.516;13.290;2022-10-31T07:55:41;35.35;;;17.58;;
73954;SDS011;62306;52.516;13.290;2022-10-31T07:58:09;32.53;;;17.58;;
73954;SDS011;62306;52.516;13.290;2022-10-31T08:00:37;35.60;;;17.83;;
73954;SDS011;62306;52.516;13.290;2022-10-31T08:03:05;35.92;;;17.50;;
73954;SDS011;62306;52.516;13.290;2022-10-31T08:05:35;47.50;;;18.23;;
73954;SDS011;62306;52.516;13.290;2022-10-31T08:08:03;32.50;;;17.63;;
73954;SDS011;62306;52.516;13.290;2022-10-31T08:10:31;35.72;;;18.23;;
73954;SDS011;62306;52.516;13.290;2022-10-31T08:12:59;39.42;;;19.13;;
73954;SDS011;62306;52.516;13.290;2022-10-31T08:15:27;33.20;;;19.02;;
73954;SDS011;62306;52.516;13.290;2022-10-31T08:17:54;35.75;;;19.00;;
73954;SDS011;62306;52.516;13.290;2022-10-31T08:20:21;35.92;;;19.13;;
73954;SDS011;62306;52.516;13.290;2022-10-31T08:22:53;49.88;;;19.35;;
73954;SDS011;62306;52.516;13.290;2022-10-31T08:25:22;45.50;;;20.58;;
73954;SDS011;62306;52.516;13.290;2022-10-31T08:27:50;42.65;;;19.30;;
73954;SDS011;62306;52.516;13.290;2022-10-31T08:30:18;40.97;;;19.80;;
73954;SDS011;62306;52.516;13.290;2022-10-31T08:32:45;47.03;;;20.63;;
73954;SDS011;62306;52.516;13.290;2022-10-31T08:35:12;38.35;;;19.13;;
73954;SDS011;62306;52.516;13.290;2022-10-31T08:37:40;42.78;;;19.42;;
73954;SDS011;62306;52.516;13.290;2022-10-31T08:40:10;43.35;;;20.80;;
73954;SDS011;62306;52.516;13.290;2022-10-31T08:42:38;54.35;;;22.13;;
73954;SDS011;62306;52.516;13.290;2022-10-31T08:45:05;41.90;;;20.40;;
73954;SDS011;62306;52.516;13.290;2022-10-31T08:47:32;35.38;;;20.10;;
73954;SDS011;62306;52.516;13.290;2022-10-31T08:49:59;46.08;;;22.95;;
73954;SDS011;62306;52.516;13.290;2022-10-31T08:52:26;42.05;;;21.40;;
73954;SDS011;62306;52.516;13.290;2022-10-31T08:54:53;42.97;;;21.13;;
73954;SDS011;62306;52.516;13.290;2022-10-31T08:57:21;36.30;;;22.10;;
73954;SDS011;62306;52.516;13.290;2022-10-31T08:59:48;46.55;;;22.33;;
73954;SDS011;62306;52.516;13.290;2022-10-31T09:02:15;43.30;;;21.67;;
73954;SDS011;62306;52.516;13.290;2022-10-31T09:04:42;46.15;;;20.90;;
73954;SDS011;62306;52.516;13.290;2022-10-31T09:07:09;42.28;;;22.60;;
73954;SDS011;62306;52.516;13.290;2022-10-31T09:09:36;42.22;;;21.65;;
73954;SDS011;62306;52.516;13.290;2022-10-31T09:12:03;44.30;;;21.88;;
73954;SDS011;62306;52.516;13.290;2022-10-31T09:14:31;45.53;;;21.52;;
73954;SDS011;62306;52.516;13.290;2022-10-31T09:16:58;50.53;;;24.35;;
73954;SDS011;62306;52.516;13.290;2022-10-31T09:19:25;43.67;;;22.38;;
73954;SDS011;62306;52.516;13.290;2022-10-31T09:21:52;43.17;;;22.23;;
73954;SDS011;62306;52.516;13.290;2022-10-31T09:24:20;44.53;;;24.27;;
73954;SDS011;62306;52.516;13.290;2022-10-31T09:26:46;44.83;;;24.98;;
73954;SDS011;62306;52.516;13.290;2022-10-31T09:29:13;47.28;;;23.70;;
73954;SDS011;62306;52.516;13.290;2022-10-31T09:31:42;48.70;;;23.55;;
73954;SDS011;62306;52.516;13.290;2022-10-31T09:34:09;48.42;;;24.60;;
73954;SDS011;62306;52.516;13.290;2022-10-31T09:36:36;50.95;;;23.27;;
73954;SDS011;62306;52.516;13.290;2022-10-31T09:39:03;50.00;;;23.48;;
73954;SDS011;62306;52.516;13.290;2022-10-31T09:41:34;42.60;;;23.75;;
73954;SDS011;62306;52.516;13.290;2022-10-31T09:46:47;50.60;;;23.30;;
73954;SDS011;62306;52.516;13.290;2022-10-31T09:49:33;49.13;;;24.58;;
73954;SDS011;62306;52.516;13.290;2022-10-31T09:52:11;46.72;;;24.50;;
73954;SDS011;62306;52.516;13.290;2022-10-31T09:54:45;49.60;;;24.30;;
73954;SDS011;62306;52.516;13.290;2022-10-31T09:57:15;55.33;;;28.42;;
73954;SDS011;62306;52.516;13.290;2022-10-31T09:59:46;51.40;;;27.48;;
73954;SDS011;62306;52.516;13.290;2022-10-31T10:02:16;51.13;;;27.67;;
73954;SDS011;62306;52.516;13.290;2022-10-31T10:04:48;63.17;;;27.52;;
73954;SDS011;62306;52.516;13.290;2022-10-31T10:07:24;51.45;;;27.23;;
73954;SDS011;62306;52.516;13.290;2022-10-31T10:09:57;48.58;;;26.85;;
73954;SDS011;62306;52.516;13.290;2022-10-31T10:12:30;51.65;;;27.15;;
73954;SDS011;62306;52.516;13.290;2022-10-31T10:15:14;48.47;;;27.35;;
73954;SDS011;62306;52.516;13.290;2022-10-31T10:17:57;54.80;;;27.50;;
73954;SDS011;62306;52.516;13.290;2022-10-31T10:20:32;50.53;;;26.65;;
73954;SDS011;62306;52.516;13.290;2022-10-31T10:23:16;46.97;;;26.95;;
73954;SDS011;62306;52.516;13.290;2022-10-31T10:26:01;57.05;;;27.77;;
73954;SDS011;62306;52.516;13.290;2022-10-31T10:28:35;46.03;;;26.10;;
73954;SDS011;62306;52.516;13.290;2022-10-31T10:31:05;54.30;;;27.13;;
73954;SDS011;62306;52.516;13.290;2022-10-31T10:33:38;86.85;;;51.60;;
73954;SDS011;62306;52.516;13.290;2022-10-31T10:36:08;65.82;;;37.88;;
73954;SDS011;62306;52.516;13.290;2022-10-31T10:38:44;51.25;;;25.58;;
73954;SDS011;62306;52.516;13.290;2022-10-31T10:41:16;52.70;;;25.55;;
73954;SDS011;62306;52.516;13.290;2022-10-31T10:43:45;54.75;;;26.98;;
73954;SDS011;62306;52.516;13.290;2022-10-31T10:46:18;52.83;;;26.95;;
73954;SDS011;62306;52.516;13.290;2022-10-31T10:49:17;45.28;;;25.85;;
73954;SDS011;62306;52.516;13.290;2022-10-31T10:51:46;48.00;;;24.90;;
73954;SDS011;62306;52.516;13.290;2022-10-31T10:54:22;47.38;;;25.88;;
73954;SDS011;62306;52.516;13.290;2022-10-31T10:57:31;45.90;;;25.05;;
73954;SDS011;62306;52.516;13.290;2022-10-31T11:00:12;46.63;;;26.20;;
73954;SDS011;62306;52.516;13.290;2022-10-31T11:02:46;48.85;;;26.88;;
73954;SDS011;62306;52.516;13.290;2022-10-31T11:05:19;53.65;;;28.73;;
73954;SDS011;62306;52.516;13.290;2022-10-31T11:07:51;60.28;;;28.27;;
73954;SDS011;62306;52.516;13.290;2022-10-31T11:10:18;53.13;;;27.90;;
73954;SDS011;62306;52.516;13.290;2022-10-31T11:12:56;55.90;;;28.85;;
73954;SDS011;62306;52.516;13.290;2022-10-31T11:15:27;53.35;;;28.23;;
73954;SDS011;62306;52.516;13.290;2022-10-31T11:17:57;53.90;;;28.23;;
73954;SDS011;62306;52.516;13.290;2022-10-31T11:20:27;55.55;;;28.83;;
73954;SDS011;62306;52.516;13.290;2022-10-31T11:23:00;54.50;;;27.52;;
73954;SDS011;62306;52.516;13.290;2022-10-31T11:25:31;47.83;;;26.15;;
73954;SDS011;62306;52.516;13.290;2022-10-31T11:27:58;48.30;;;25.63;;
73954;SDS011;62306;52.516;13.290;2022-10-31T11:30:26;51.92;;;27.30;;
73954;SDS011;62306;52.516;13.290;2022-10-31T11:32:53;59.13;;;30.17;;
73954;SDS011;62306;52.516;13.290;2022-10-31T11:35:21;46.08;;;27.55;;
73954;SDS011;62306;52.516;13.290;2022-10-31T11:37:52;52.58;;;26.52;;
73954;SDS011;62306;52.516;13.290;2022-10-31T11:40:21;50.38;;;25.98;;
73954;SDS011;62306;52.516;13.290;2022-10-31T11:42:50;51.00;;;25.52;;
73954;SDS011;62306;52.516;13.290;2022-10-31T11:45:27;43.85;;;25.08;;
73954;SDS011;62306;52.516;13.290;2022-10-31T11:47:56;51.55;;;26.10;;
73954;SDS011;62306;52.516;13.290;2022-10-31T11:50:27;51.83;;;26.55;;
73954;SDS011;62306;52.516;13.290;2022-10-31T11:52:59;47.70;;;25.73;;
73954;SDS011;62306;52.516;13.290;2022-10-31T11:55:32;52.40;;;25.30;;
73954;SDS011;62306;52.516;13.290;2022-10-31T11:58:00;48.92;;;24.60;;
73954;SDS011;62306;52.516;13.290;2022-10-31T12:00:28;55.20;;;27.63;;
73954;SDS011;62306;52.516;13.290;2022-10-31T12:05:54;55.85;;;26.63;;
73954;SDS011;62306;52.516;13.290;2022-10-31T12:08:24;47.53;;;25.25;;
73954;SDS011;62306;52.516;13.290;2022-10-31T12:10:57;50.63;;;25.02;;
73954;SDS011;62306;52.516;13.290;2022-10-31T12:13:32;49.47;;;24.27;;
73954;SDS011;62306;52.516;13.290;2022-10-31T12:16:04;45.80;;;24.23;;
73954;SDS011;62306;52.516;13.290;2022-10-31T12:18:41;46.28;;;24.88;;
73954;SDS011;62306;52.516;13.290;2022-10-31T12:21:25;51.70;;;25.17;;
73954;SDS011;62306;52.516;13.290;2022-10-31T12:24:14;50.15;;;24.08;;
73954;SDS011;62306;52.516;13.290;2022-10-31T12:29:37;46.95;;;24.00;;
73954;SDS011;62306;52.516;13.290;2022-10-31T12:32:26;48.08;;;24.33;;
73954;SDS011;62306;52.516;13.290;2022-10-31T12:35:16;44.58;;;25.38;;
73954;SDS011;62306;52.516;13.290;2022-10-31T12:38:00;46.35;;;26.98;;
73954;SDS011;62306;52.516;13.290;2022-10-31T12:43:22;47.40;;;24.48;;
73954;SDS011;62306;52.516;13.290;2022-10-31T12:46:00;47.55;;;23.42;;
73954;SDS011;62306;52.516;13.290;2022-10-31T12:48:37;41.20;;;24.58;;
73954;SDS011;62306;52.516;13.290;2022-10-31T12:51:19;48.17;;;26.55;;
73954;SDS011;62306;52.516;13.290;2022-10-31T12:53:56;44.33;;;23.73;;
73954;SDS011;62306;52.516;13.290;2022-10-31T12:56:45;46.15;;;24.40;;
73954;SDS011;62306;52.516;13.290;2022-10-31T12:59:21;50.28;;;26.92;;
73954;SDS011;62306;52.516;13.290;2022-10-31T13:01:59;67.07;;;37.00;;
73954;SDS011;62306;52.516;13.290;2022-10-31T13:04:35;67.15;;;31.25;;
73954;SDS011;62306;52.516;13.290;2022-10-31T13:07:09;57.45;;;31.85;;
73954;SDS011;62306;52.516;13.290;2022-10-31T13:09:42;62.13;;;33.60;;
73954;SDS011;62306;52.516;13.290;2022-10-31T13:12:17;79.82;;;43.72;;
73954;SDS011;62306;52.516;13.290;2022-10-31T13:14:47;77.32;;;40.30;;
73954;SDS011;62306;52.516;13.290;2022-10-31T13:17:24;61.78;;;32.28;;
73954;SDS011;62306;52.516;13.290;2022-10-31T13:19:58;53.45;;;31.98;;
73954;SDS011;62306;52.516;13.290;2022-10-31T13:22:39;72.35;;;35.13;;
73954;SDS011;62306;52.516;13.290;2022-10-31T13:25:11;58.10;;;31.25;;
73954;SDS011;62306;52.516;13.290;2022-10-31T13:27:45;60.67;;;32.38;;
73954;SDS011;62306;52.516;13.290;2022-10-31T13:30:17;57.88;;;34.40;;
73954;SDS011;62306;52.516;13.290;2022-10-31T13:32:47;61.42;;;33.40;;
73954;SDS011;62306;52.516;13.290;2022-10-31T13:35:19;62.28;;;33.67;;
73954;SDS011;62306;52.516;13.290;2022-10-31T13:37:53;67.75;;;34.17;;
73954;SDS011;62306;52.516;13.290;2022-10-31T13:40:33;72.40;;;39.05;;
73954;SDS011;62306;52.516;13.290;2022-10-31T13:43:10;67.13;;;35.33;;
73954;SDS011;62306;52.516;13.290;2022-10-31T13:45:48;67.75;;;36.40;;
73954;SDS011;62306;52.516;13.290;2022-10-31T13:48:33;70.85;;;38.05;;
73954;SDS011;62306;52.516;13.290;2022-10-31T13:51:03;70.40;;;39.63;;
73954;SDS011;62306;52.516;13.290;2022-10-31T13:53:43;72.30;;;35.80;;
73954;SDS011;62306;52.516;13.290;2022-10-31T13:56:18;67.47;;;36.22;;
73954;SDS011;62306;52.516;13.290;2022-10-31T13:59:03;75.57;;;38.67;;
73954;SDS011;62306;52.516;13.290;2022-10-31T14:01:46;72.45;;;37.72;;
73954;SDS011;62306;52.516;13.290;2022-10-31T14:04:15;72.65;;;39.80;;
73954;SDS011;62306;52.516;13.290;2022-10-31T14:06:47;79.15;;;40.42;;
73954;SDS011;62306;52.516;13.290;2022-10-31T14:09:24;72.72;;;40.40;;
73954;SDS011;62306;52.516;13.290;2022-10-31T14:11:54;74.15;;;40.47;;
73954;SDS011;62306;52.516;13.290;2022-10-31T14:14:26;78.80;;;41.70;;
73954;SDS011;62306;52.516;13.290;2022-10-31T14:16:58;79.45;;;41.20;;
73954;SDS011;62306;52.516;13.290;2022-10-31T14:19:26;77.40;;;42.47;;
73954;SDS011;62306;52.516;13.290;2022-10-31T14:21:53;80.07;;;41.85;;
73954;SDS011;62306;52.516;13.290;2022-10-31T14:24:31;76.60;;;44.30;;
73954;SDS011;62306;52.516;13.290;2022-10-31T14:27:00;76.65;;;41.65;;
73954;SDS011;62306;52.516;13.290;2022-10-31T14:29:30;74.40;;;42.15;;
73954;SDS011;62306;52.516;13.290;2022-10-31T14:31:59;85.45;;;41.58;;
73954;SDS011;62306;52.516;13.290;2022-10-31T14:34:36;82.75;;;42.30;;
73954;SDS011;62306;52.516;13.290;2022-10-31T14:37:14;87.32;;;43.60;;
73954;SDS011;62306;52.516;13.290;2022-10-31T14:39:58;90.90;;;44.92;;